Time;durP1;ratioP1;P1;durP2;ratioP2;P2;SDS_P1;SDS_P2;PMS_P1;PMS_P2;Temp;Humidity;BMP_temperature;BMP_pressure;BME280_temperature;BME280_humidity;BME280_pressure;Samples;Min_cycle;Max_cycle;Signal;HPM_P1;HPM_P2
2022/04/20 00:02:00;;;;;;;1.10;0.80;;;;;;;6.28;69.62;98871.56;1691977;82;21495;-53
2022/04/20 00:04:27;;;;;;;1.00;0.90;;;;;;;6.28;69.59;98872.91;1694104;82;21552;-53
2022/04/20 00:06:55;;;;;;;1.13;0.83;;;;;;;6.30;69.58;98876.81;1721707;80;21066;-53
2022/04/20 00:09:21;;;;;;;0.90;0.70;;;;;;;6.31;69.56;98867.87;1726673;80;22470;-52
2022/04/20 00:11:49;;;;;;;0.73;0.70;;;;;;;6.33;69.52;98879.36;1723473;80;21089;-51
2022/04/20 00:14:15;;;;;;;1.13;0.80;;;;;;;6.35;69.42;98885.52;1726725;80;21094;-53
2022/04/20 00:16:43;;;;;;;2.30;0.80;;;;;;;6.34;69.32;98884.64;1722931;80;21053;-53
2022/04/20 00:19:10;;;;;;;0.97;0.60;;;;;;;6.34;69.31;98879.77;1722834;80;21096;-52
2022/04/20 00:21:36;;;;;;;0.97;0.70;;;;;;;6.32;69.29;98882.50;1722351;80;21784;-52
2022/04/20 00:24:05;;;;;;;1.03;0.90;;;;;;;6.30;69.26;98883.03;1692148;82;21566;-52
2022/04/20 00:26:31;;;;;;;2.23;0.70;;;;;;;6.29;69.20;98885.34;1689715;82;21428;-52
2022/04/20 00:29:00;;;;;;;1.10;0.73;;;;;;;6.25;69.13;98888.19;1725747;80;21605;-52
2022/04/20 00:31:26;;;;;;;0.97;0.60;;;;;;;6.22;69.10;98889.66;1723379;80;21043;-52
2022/04/20 00:33:52;;;;;;;0.70;0.60;;;;;;;6.22;69.10;98890.98;1731620;80;21495;-51
2022/04/20 00:36:20;;;;;;;1.07;0.70;;;;;;;6.22;69.12;98888.31;1727638;80;21045;-52
2022/04/20 00:38:47;;;;;;;0.87;0.67;;;;;;;6.22;69.17;98894.53;1729087;80;21410;-52
2022/04/20 00:41:15;;;;;;;0.70;0.70;;;;;;;6.24;69.08;98893.13;1692890;82;21089;-52
2022/04/20 00:43:41;;;;;;;0.80;0.67;;;;;;;6.27;68.97;98901.02;1689615;82;22012;-51
2022/04/20 00:46:08;;;;;;;1.67;0.70;;;;;;;6.30;68.89;98899.53;1698007;82;21141;-52
2022/04/20 00:48:38;;;;;;;1.17;0.73;;;;;;;6.32;68.78;98899.00;1700234;82;21029;-52
2022/04/20 00:51:05;;;;;;;1.10;0.90;;;;;;;6.32;68.73;98903.02;1699162;82;21005;-51
2022/04/20 00:53:34;;;;;;;1.00;0.80;;;;;;;6.30;68.61;98901.73;1701094;82;22105;-52
2022/04/20 00:56:01;;;;;;;1.47;1.00;;;;;;;6.29;68.60;98897.36;1732776;80;21500;-52
2022/04/20 00:58:29;;;;;;;2.50;0.80;;;;;;;6.27;68.55;98902.36;1734130;80;21672;-52
2022/04/20 01:00:58;;;;;;;0.93;0.80;;;;;;;6.25;68.52;98909.57;1734322;80;21129;-52
2022/04/20 01:03:26;;;;;;;0.90;0.70;;;;;;;6.23;68.59;98908.77;1699918;82;21033;-52
2022/04/20 01:06:12;;;;;;;0.90;0.70;;;;;;;6.19;68.55;98909.85;1738049;80;21718;-52
2022/04/20 01:08:48;;;;;;;1.60;0.67;;;;;;;6.17;68.54;98906.37;1735407;80;21113;-51
2022/04/20 01:11:25;;;;;;;0.70;0.60;;;;;;;6.16;68.55;98905.97;1718793;80;21093;-53
2022/04/20 01:14:04;;;;;;;0.87;0.60;;;;;;;6.15;68.57;98902.42;1699564;82;21131;-52
2022/04/20 01:16:49;;;;;;;0.90;0.70;;;;;;;6.17;68.58;98911.72;1729425;80;21942;-52
2022/04/20 01:19:19;;;;;;;0.70;0.67;;;;;;;6.16;68.50;98905.50;1670253;80;20995;-51
2022/04/20 01:21:49;;;;;;;2.40;0.73;;;;;;;6.16;68.40;98905.97;1695465;82;21174;-52
2022/04/20 01:24:38;;;;;;;1.10;0.80;;;;;;;6.15;68.32;98902.89;1734451;80;21160;-52
2022/04/20 01:27:24;;;;;;;0.90;0.70;;;;;;;6.14;68.31;98910.50;1688417;83;21136;-52
2022/04/20 01:30:10;;;;;;;1.70;0.70;;;;;;;6.12;68.16;98907.05;1727300;80;21435;-52
2022/04/20 01:32:55;;;;;;;1.00;0.75;;;;;;;6.08;68.17;98915.19;1696647;82;21084;-52
2022/04/20 01:35:24;;;;;;;2.20;0.70;;;;;;;6.06;68.10;98911.70;1734125;80;20982;-52
2022/04/20 01:37:50;;;;;;;0.83;0.70;;;;;;;6.04;68.09;98910.89;1735166;80;21385;-52
2022/04/20 01:40:17;;;;;;;1.00;0.60;;;;;;;6.03;68.10;98912.33;1732230;80;20938;-52
2022/04/20 01:42:45;;;;;;;1.50;0.70;;;;;;;6.02;68.15;98905.24;1734077;80;20912;-51
2022/04/20 01:45:11;;;;;;;1.00;0.70;;;;;;;6.02;68.18;98894.55;1696545;82;20859;-51
2022/04/20 01:47:42;;;;;;;1.10;0.70;;;;;;;6.02;68.14;98898.09;1725686;80;20875;-51
2022/04/20 01:50:18;;;;;;;0.90;0.60;;;;;;;6.01;68.10;98896.36;1703729;80;21185;-52
2022/04/20 01:52:49;;;;;;;0.60;0.50;;;;;;;6.02;68.10;98894.55;1722834;80;21467;-52
2022/04/20 01:55:34;;;;;;;0.67;0.50;;;;;;;6.03;68.12;98897.17;1727803;80;21015;-52
2022/04/20 01:58:05;;;;;;;1.00;0.50;;;;;;;6.06;68.02;98896.14;1726934;80;21385;-51
2022/04/20 02:00:33;;;;;;;0.63;0.60;;;;;;;6.07;68.00;98901.89;1717624;80;20923;-51
2022/04/20 02:03:01;;;;;;;0.70;0.50;;;;;;;6.06;67.98;98897.02;1727691;80;21158;-52
2022/04/20 02:05:36;;;;;;;0.70;0.60;;;;;;;6.07;67.94;98901.89;1726308;80;21396;-51
2022/04/20 02:08:20;;;;;;;1.10;0.50;;;;;;;6.05;67.82;98899.28;1724231;80;21393;-52
2022/04/20 02:11:03;;;;;;;0.87;0.60;;;;;;;6.06;67.86;98907.70;1669240;84;21428;-52
2022/04/20 02:13:32;;;;;;;0.60;0.50;;;;;;;6.04;67.82;98904.69;1707398;80;21325;-52
2022/04/20 02:16:02;;;;;;;0.60;0.50;;;;;;;6.02;67.77;98903.44;1692346;82;21798;-52
2022/04/20 02:18:47;;;;;;;0.90;0.50;;;;;;;6.00;67.84;98903.97;1727096;80;25263;-51
2022/04/20 02:21:33;;;;;;;0.87;0.60;;;;;;;5.98;67.93;98904.49;1727091;80;20904;-52
2022/04/20 02:23:59;;;;;;;0.60;0.40;;;;;;;5.95;67.93;98897.97;1724170;80;21521;-52
2022/04/20 02:26:26;;;;;;;0.70;0.50;;;;;;;5.94;67.94;98906.91;1727720;80;20876;-51
2022/04/20 02:28:52;;;;;;;0.70;0.40;;;;;;;5.93;68.04;98913.65;1692209;82;21060;-51
2022/04/20 02:31:20;;;;;;;0.60;0.47;;;;;;;5.93;68.06;98914.52;1695899;82;20956;-52
2022/04/20 02:33:47;;;;;;;0.50;0.47;;;;;;;5.94;68.12;98909.58;1726103;80;21046;-52
2022/04/20 02:36:14;;;;;;;0.50;0.40;;;;;;;5.96;68.14;98919.70;1724496;80;21049;-52
2022/04/20 02:38:40;;;;;;;0.50;0.47;;;;;;;5.98;68.15;98919.19;1729617;80;21575;-52
2022/04/20 02:41:07;;;;;;;0.63;0.50;;;;;;;6.00;68.07;98911.11;1727857;80;21143;-52
2022/04/20 02:43:33;;;;;;;1.10;0.50;;;;;;;6.00;67.98;98911.98;1729615;80;21075;-52
2022/04/20 02:46:00;;;;;;;0.60;0.50;;;;;;;6.00;67.88;98907.97;1733341;80;21021;-53
2022/04/20 02:48:26;;;;;;;0.70;0.60;;;;;;;6.00;67.83;98910.64;1737725;80;20918;-52
2022/04/20 02:50:53;;;;;;;1.33;0.60;;;;;;;5.98;67.80;98909.84;1742037;80;21113;-52
2022/04/20 02:53:20;;;;;;;1.30;0.40;;;;;;;5.98;67.73;98918.31;1737879;80;21461;-52
2022/04/20 02:55:46;;;;;;;0.80;0.70;;;;;;;5.96;67.72;98915.70;1741803;80;21036;-52
2022/04/20 02:58:13;;;;;;;0.63;0.60;;;;;;;5.95;67.73;98913.13;1709765;82;21902;-52
2022/04/20 03:00:43;;;;;;;0.70;0.60;;;;;;;5.92;67.64;98907.44;1704936;82;20901;-52
2022/04/20 03:03:26;;;;;;;0.85;0.60;;;;;;;5.89;67.64;98912.89;1685267;83;21058;-52
2022/04/20 03:05:56;;;;;;;0.70;0.50;;;;;;;5.87;67.59;98917.89;1704666;82;21097;-51
2022/04/20 03:08:24;;;;;;;0.73;0.60;;;;;;;5.87;67.58;98912.55;1708966;82;21037;-51
2022/04/20 03:10:52;;;;;;;0.93;0.50;;;;;;;5.87;67.54;98915.22;1705136;82;21104;-51
2022/04/20 03:13:20;;;;;;;0.53;0.50;;;;;;;5.87;67.48;98922.73;1704997;82;21065;-51
2022/04/20 03:15:48;;;;;;;0.50;0.50;;;;;;;5.89;67.44;98916.03;1704712;82;21136;-51
2022/04/20 03:18:14;;;;;;;0.63;0.50;;;;;;;5.90;67.42;98924.45;1708459;82;21125;-52
2022/04/20 03:20:42;;;;;;;0.70;0.50;;;;;;;5.92;67.35;98919.92;1708774;82;21041;-51
2022/04/20 03:23:12;;;;;;;0.93;0.50;;;;;;;5.93;67.38;98925.67;1706186;82;21042;-51
2022/04/20 03:25:41;;;;;;;1.13;0.63;;;;;;;5.93;67.27;98925.20;1680327;83;21054;-51
2022/04/20 03:28:12;;;;;;;1.00;0.70;;;;;;;5.95;67.17;98931.36;1702651;82;21507;-51
2022/04/20 03:30:39;;;;;;;1.10;0.70;;;;;;;5.95;67.09;98930.02;1705680;82;21146;-51
2022/04/20 03:33:06;;;;;;;3.17;1.93;;;;;;;5.95;67.04;98931.36;1706147;82;21396;-51
2022/04/20 03:35:32;;;;;;;14.53;6.97;;;;;;;5.94;66.93;98930.95;1685810;83;21095;-51
2022/04/20 03:38:00;;;;;;;19.57;9.40;;;;;;;5.91;66.81;98922.19;1683820;83;22219;-51
2022/04/20 03:40:29;;;;;;;27.90;11.40;;;;;;;5.88;66.78;98925.84;1682739;83;21161;-50
2022/04/20 03:42:57;;;;;;;31.63;12.30;;;;;;;5.87;66.86;98921.41;1684901;83;21152;-51
2022/04/20 03:45:25;;;;;;;44.80;18.00;;;;;;;5.86;66.72;98925.03;1683589;83;21220;-52
2022/04/20 03:47:53;;;;;;;36.30;14.03;;;;;;;5.85;66.71;98926.43;1697177;82;21093;-51
2022/04/20 03:50:21;;;;;;;16.60;5.60;;;;;;;5.85;66.75;98919.75;1682289;83;21073;-51
2022/04/20 03:52:47;;;;;;;23.57;8.20;;;;;;;5.84;66.65;98926.89;1692675;82;21630;-51
2022/04/20 03:55:15;;;;;;;21.97;8.60;;;;;;;5.85;66.70;98934.44;1693102;82;21790;-51
2022/04/20 03:57:43;;;;;;;23.80;9.60;;;;;;;5.90;66.56;98932.00;1695306;82;21110;-51
2022/04/20 04:00:12;;;;;;;19.87;7.53;;;;;;;5.94;66.53;98928.75;1670265;82;21062;-51
2022/04/20 04:02:46;;;;;;;26.23;9.80;;;;;;;6.02;66.46;98922.14;1694212;82;21105;-51
2022/04/20 04:05:14;;;;;;;28.67;11.87;;;;;;;6.15;66.37;98924.27;1690594;82;20919;-51
2022/04/20 04:07:46;;;;;;;20.33;9.23;;;;;;;6.32;66.21;98918.58;1696468;82;21118;-50
2022/04/20 04:10:15;;;;;;;8.47;4.13;;;;;;;6.52;65.56;98915.50;1694177;82;21496;-51
2022/04/20 04:12:41;;;;;;;2.30;1.30;;;;;;;6.65;65.14;98918.00;1695578;82;21451;-51
2022/04/20 04:15:10;;;;;;;2.13;1.00;;;;;;;6.79;64.67;98913.78;1694354;82;21362;-51
2022/04/20 04:17:38;;;;;;;1.13;0.70;;;;;;;6.94;64.01;98915.33;1694637;82;22345;-51
2022/04/20 04:20:07;;;;;;;0.80;0.60;;;;;;;6.98;63.40;98916.91;1696771;82;21094;-51
2022/04/20 04:22:36;;;;;;;0.73;0.60;;;;;;;6.96;63.04;98919.69;1691969;82;21073;-51
2022/04/20 04:25:10;;;;;;;0.83;0.60;;;;;;;6.93;62.86;98924.30;1689505;82;21121;-51
2022/04/20 04:27:36;;;;;;;1.63;0.57;;;;;;;6.91;62.77;98920.34;1698391;82;20935;-51
2022/04/20 04:30:05;;;;;;;3.47;0.60;;;;;;;6.89;62.57;98922.22;1694966;82;20903;-51
2022/04/20 04:32:34;;;;;;;0.87;0.60;;;;;;;6.84;62.45;98925.13;1696752;82;21242;-51
2022/04/20 04:35:03;;;;;;;0.87;0.70;;;;;;;6.77;62.42;98933.03;1693826;82;21007;-51
2022/04/20 04:37:30;;;;;;;0.83;0.60;;;;;;;6.69;62.46;98924.50;1697262;82;20955;-51
2022/04/20 04:39:59;;;;;;;1.00;0.70;;;;;;;6.64;62.59;98929.16;1696200;82;20947;-51
2022/04/20 04:42:27;;;;;;;0.90;0.70;;;;;;;6.60;62.67;98936.07;1675312;82;20971;-51
2022/04/20 04:48:36;;;;;;;2.07;0.80;;;;;;;6.55;62.58;98936.77;1666327;84;21084;-51
2022/04/20 04:50:08;;;;;;;1.40;0.70;;;;;;;6.39;62.65;98938.75;1681841;83;21468;-51
2022/04/20 04:52:36;;;;;;;1.00;0.77;;;;;;;6.35;62.93;98933.63;1665958;83;21466;-50
2022/04/20 04:55:05;;;;;;;0.80;0.70;;;;;;;6.31;62.97;98937.36;1683308;83;20940;-50
2022/04/20 04:57:33;;;;;;;1.00;0.60;;;;;;;6.27;62.93;98939.31;1686576;83;21820;-51
2022/04/20 05:00:01;;;;;;;1.00;0.70;;;;;;;6.27;63.09;98933.97;1671789;83;20999;-51
2022/04/20 05:02:28;;;;;;;2.17;0.80;;;;;;;6.31;63.10;98940.03;1727248;80;22306;-52
2022/04/20 05:04:57;;;;;;;1.10;0.70;;;;;;;6.36;63.35;98946.06;1726456;80;21799;-51
2022/04/20 05:07:23;;;;;;;1.10;1.00;;;;;;;6.42;63.26;98952.47;1730324;80;20912;-52
2022/04/20 05:09:57;;;;;;;1.00;0.90;;;;;;;6.46;63.29;98950.07;1693503;82;21848;-50
2022/04/20 05:12:24;;;;;;;1.40;0.90;;;;;;;6.51;63.41;98954.73;1722877;80;21422;-51
2022/04/20 05:14:52;;;;;;;0.90;0.70;;;;;;;6.54;63.21;98947.92;1690755;82;20926;-51
2022/04/20 05:17:20;;;;;;;1.13;0.77;;;;;;;6.56;62.82;98944.69;1725974;80;20890;-51
2022/04/20 05:19:46;;;;;;;0.90;0.70;;;;;;;6.55;62.91;98947.45;1716042;80;21716;-49
2022/04/20 05:22:18;;;;;;;1.10;0.90;;;;;;;6.53;63.03;98955.54;1728813;80;21060;-51
2022/04/20 05:24:46;;;;;;;1.10;0.80;;;;;;;6.55;62.92;98957.66;1727719;80;21290;-50
2022/04/20 05:27:15;;;;;;;1.03;0.83;;;;;;;6.57;62.78;98957.59;1726732;80;20893;-51
2022/04/20 05:29:49;;;;;;;1.12;0.90;;;;;;;6.55;62.67;98952.30;1723379;80;20978;-51
2022/04/20 05:32:17;;;;;;;1.10;0.83;;;;;;;6.53;62.78;98955.54;1693666;82;20962;-51
2022/04/20 05:34:44;;;;;;;1.63;0.90;;;;;;;6.54;62.90;98957.28;1693115;82;21079;-51
2022/04/20 05:42:42;;;;;;;2.10;1.00;;;;;;;6.69;62.99;98959.27;1728788;80;21010;-51
2022/04/20 05:45:09;;;;;;;1.20;0.90;;;;;;;6.72;62.99;98963.12;1724301;80;21006;-51
2022/04/20 05:47:38;;;;;;;2.03;0.77;;;;;;;6.73;63.00;98964.86;1729923;80;21696;-51
2022/04/20 05:50:06;;;;;;;1.00;0.90;;;;;;;6.76;63.00;98970.08;1740528;80;21120;-51
2022/04/20 05:52:33;;;;;;;1.30;1.00;;;;;;;6.83;63.02;98977.34;1704298;82;21045;-51
2022/04/20 05:55:01;;;;;;;1.27;0.87;;;;;;;6.89;63.11;98977.56;1705067;82;21104;-51
2022/04/20 05:57:28;;;;;;;1.50;0.90;;;;;;;6.95;62.89;98977.27;1703060;82;21056;-50
2022/04/20 05:59:56;;;;;;;1.10;0.90;;;;;;;7.02;62.92;98979.59;1709861;82;21382;-52
2022/04/20 06:02:23;;;;;;;1.20;0.80;;;;;;;7.08;62.86;98970.41;1705374;82;21286;-51
2022/04/20 06:04:50;;;;;;;1.93;1.00;;;;;;;7.14;62.69;98974.16;1707669;82;21356;-51
2022/04/20 06:07:16;;;;;;;1.33;1.23;;;;;;;7.19;62.63;98977.00;1704821;82;21442;-51
2022/04/20 06:09:46;;;;;;;1.57;1.00;;;;;;;7.23;62.53;98978.58;1706310;82;21091;-50
2022/04/20 06:12:13;;;;;;;1.17;0.93;;;;;;;7.28;62.34;98981.05;1705021;82;21651;-51
2022/04/20 06:14:44;;;;;;;1.50;1.03;;;;;;;7.29;62.32;98972.56;1703696;82;21028;-51
2022/04/20 06:17:17;;;;;;;1.20;1.10;;;;;;;7.32;62.17;98986.64;1701301;82;21033;-51
2022/04/20 06:19:46;;;;;;;1.30;1.10;;;;;;;7.34;62.03;98984.77;1706904;82;21470;-51
2022/04/20 06:22:25;;;;;;;1.17;1.00;;;;;;;7.35;61.93;98991.00;1703823;82;21132;-51
2022/04/20 06:24:55;;;;;;;1.50;1.40;;;;;;;7.35;61.89;98982.97;1706627;82;21269;-50
2022/04/20 06:27:30;;;;;;;2.73;1.30;;;;;;;7.34;61.75;98982.56;1705671;82;21063;-51
2022/04/20 06:30:00;;;;;;;1.20;1.10;;;;;;;7.32;62.01;98987.98;1696344;82;22441;-51
2022/04/20 06:32:31;;;;;;;1.50;1.00;;;;;;;7.33;61.90;98979.02;1705302;82;21181;-51
2022/04/20 06:35:09;;;;;;;1.40;1.30;;;;;;;7.34;61.78;98980.76;1709904;82;20942;-51
2022/04/20 06:37:40;;;;;;;1.20;1.10;;;;;;;7.33;61.68;98972.33;1683609;83;21842;-51
2022/04/20 06:40:09;;;;;;;1.97;1.17;;;;;;;7.34;61.72;98975.88;1681910;83;21118;-51
2022/04/20 06:42:43;;;;;;;1.57;1.40;;;;;;;7.35;61.65;98977.61;1683399;83;21130;-51
2022/04/20 06:45:18;;;;;;;;;;;;;;;7.35;61.71;98986.52;1668563;83;21517;-51
2022/04/20 06:47:48;;;;;;;1.30;0.93;;;;;;;7.38;61.79;98987.72;1678755;83;20217;-51
2022/04/20 06:50:34;;;;;;;1.30;1.00;;;;;;;7.44;61.94;98984.74;1688619;83;22212;-51
2022/04/20 07:01:27;;;;;;;1.30;0.90;;;;;;;7.67;61.79;98955.97;1847493;75;22710;-51
2022/04/20 07:03:55;;;;;;;1.00;0.90;;;;;;;7.67;61.78;98965.34;1780281;77;21100;-51
2022/04/20 07:06:23;;;;;;;1.50;1.20;;;;;;;7.68;61.64;98963.94;1770621;78;21137;-51
2022/04/20 07:08:52;;;;;;;1.10;1.00;;;;;;;7.69;61.38;98955.42;1752309;78;21466;-52
2022/04/20 07:11:21;;;;;;;1.17;0.87;;;;;;;7.69;61.63;98959.45;1755175;80;21577;-52
2022/04/20 07:13:51;;;;;;;1.60;0.77;;;;;;;7.72;61.48;98956.63;1740539;80;21008;-52
2022/04/20 07:16:18;;;;;;;1.13;0.80;;;;;;;7.72;61.46;98961.52;1755671;79;21206;-51
2022/04/20 07:18:48;;;;;;;1.00;0.87;;;;;;;7.75;61.64;98957.33;1758424;79;21129;-52
2022/04/20 07:21:22;;;;;;;1.30;1.00;;;;;;;7.79;61.87;98968.30;1761987;79;20925;-52
2022/04/20 07:23:55;;;;;;;1.97;0.80;;;;;;;7.82;61.70;98968.64;1712316;79;20954;-52
2022/04/20 07:26:26;;;;;;;1.20;0.90;;;;;;;7.83;61.73;98963.17;1749115;79;21029;-52
2022/04/20 07:29:11;;;;;;;1.25;0.98;;;;;;;7.85;61.46;98961.77;1773336;78;21036;-52
2022/04/20 07:31:43;;;;;;;1.70;0.90;;;;;;;7.81;61.33;98966.42;1734724;80;21626;-52
2022/04/20 07:34:12;;;;;;;0.97;0.90;;;;;;;7.80;61.46;98962.48;1695960;79;21618;-52
2022/04/20 07:36:49;;;;;;;1.40;1.30;;;;;;;7.81;61.60;98958.86;1754795;79;21412;-52
2022/04/20 07:39:27;;;;;;;1.03;0.93;;;;;;;7.82;61.52;98956.11;1666816;84;21166;-52
2022/04/20 07:42:05;;;;;;;0.70;0.67;;;;;;;7.85;61.69;98955.94;1757140;79;21049;-52
2022/04/20 07:44:47;;;;;;;0.90;0.80;;;;;;;7.88;61.89;98948.22;1704200;79;21508;-52
2022/04/20 07:47:25;;;;;;;1.25;0.98;;;;;;;7.92;61.92;98949.32;1761255;79;20938;-52
2022/04/20 07:52:54;;;;;;;3.40;1.37;;;;;;;7.97;61.84;98933.89;1757933;79;20911;-51
2022/04/20 07:55:43;;;;;;;1.40;0.90;;;;;;;7.98;61.94;98932.09;1759041;79;21318;-51
2022/04/20 07:58:10;;;;;;;0.80;0.70;;;;;;;8.01;61.91;98933.25;1745251;79;20898;-52
2022/04/20 08:00:45;;;;;;;2.35;0.70;;;;;;;8.03;61.63;98938.53;1737231;79;20953;-52
2022/04/20 08:03:32;;;;;;;1.35;0.78;;;;;;;8.01;61.66;98931.04;1738750;81;22160;-51
2022/04/20 08:05:59;;;;;;;3.72;0.70;;;;;;;8.02;61.78;98933.65;1736954;81;21100;-52
2022/04/20 08:08:27;;;;;;;0.72;0.60;;;;;;;8.06;61.52;98929.02;1739472;81;20905;-50
2022/04/20 08:10:56;;;;;;;0.80;0.68;;;;;;;8.09;61.59;98923.00;1742022;81;21494;-51
2022/04/20 08:16:07;;;;;;;0.70;0.60;;;;;;;8.13;61.65;98918.36;1711201;81;20957;-51
2022/04/20 08:18:35;;;;;;;0.68;0.57;;;;;;;8.16;61.50;98920.91;1740622;81;21916;-51
2022/04/20 08:21:06;;;;;;;0.95;0.60;;;;;;;8.21;61.48;98918.36;1740045;81;20957;-52
2022/04/20 08:23:33;;;;;;;0.70;0.70;;;;;;;8.26;61.16;98918.11;1741271;81;21502;-51
2022/04/20 08:26:00;;;;;;;0.80;0.62;;;;;;;8.26;60.71;98918.98;1739375;81;20965;-51
2022/04/20 08:28:29;;;;;;;0.80;0.60;;;;;;;8.23;60.55;98926.33;1739705;81;21862;-51
2022/04/20 08:30:57;;;;;;;0.90;0.70;;;;;;;8.19;60.63;98924.27;1736957;81;20922;-51
2022/04/20 08:33:24;;;;;;;0.70;0.60;;;;;;;8.18;60.73;98933.73;1739049;81;21552;-51
2022/04/20 08:35:51;;;;;;;0.70;0.60;;;;;;;8.17;60.68;98934.67;1736042;81;21085;-51
2022/04/20 08:38:17;;;;;;;1.67;0.47;;;;;;;8.18;60.92;98929.70;1736356;81;21052;-51
2022/04/20 08:40:45;;;;;;;0.50;0.40;;;;;;;8.21;60.80;98934.45;1744885;81;21080;-52
2022/04/20 08:43:13;;;;;;;0.60;0.57;;;;;;;8.23;60.78;98935.25;1739913;81;21135;-51
2022/04/20 08:45:40;;;;;;;0.50;0.45;;;;;;;8.25;60.79;98933.33;1738352;81;21692;-51
2022/04/20 08:48:09;;;;;;;0.50;0.50;;;;;;;8.29;60.75;98934.05;1752989;80;21044;-51
2022/04/20 08:50:36;;;;;;;0.33;0.30;;;;;;;8.33;60.76;98927.16;1749138;79;21075;-51
2022/04/20 08:53:03;;;;;;;1.47;0.50;;;;;;;8.39;60.63;98925.96;1747412;79;21088;-52
2022/04/20 08:55:31;;;;;;;0.70;0.50;;;;;;;8.42;60.28;98924.44;1748991;79;21459;-51
2022/04/20 08:57:58;;;;;;;0.85;0.70;;;;;;;8.42;59.94;98922.26;1748674;79;21415;-51
2022/04/20 09:00:28;;;;;;;1.02;0.50;;;;;;;8.41;60.00;98932.12;1731754;81;21680;-52
2022/04/20 09:02:57;;;;;;;0.60;0.50;;;;;;;8.42;60.10;98926.28;1732316;80;20973;-51
2022/04/20 09:05:25;;;;;;;0.60;0.50;;;;;;;8.44;59.92;98932.41;1756219;79;21465;-51
2022/04/20 09:07:53;;;;;;;1.32;0.50;;;;;;;8.48;59.96;98933.52;1729679;80;20981;-52
2022/04/20 09:10:20;;;;;;;0.50;0.42;;;;;;;8.52;59.95;98932.39;1759888;79;21059;-51
2022/04/20 09:13:07;;;;;;;0.70;0.50;;;;;;;8.57;59.74;98930.83;1733080;80;21053;-51
2022/04/20 09:15:35;;;;;;;0.50;0.40;;;;;;;8.58;59.84;98940.62;1730058;80;20961;-51
2022/04/20 09:18:04;;;;;;;0.60;0.50;;;;;;;8.57;59.47;98945.58;1761064;79;21040;-51
2022/04/20 09:20:32;;;;;;;0.90;0.50;;;;;;;8.56;59.61;98938.01;1729696;80;20990;-51
2022/04/20 09:23:10;;;;;;;0.88;0.53;;;;;;;8.60;59.57;98936.02;1734838;80;21527;-51
2022/04/20 09:25:41;;;;;;;0.75;0.50;;;;;;;8.66;59.58;98941.08;1731602;80;21393;-51
2022/04/20 09:28:09;;;;;;;1.17;0.50;;;;;;;8.71;59.35;98942.55;1727122;80;20922;-52
2022/04/20 09:30:38;;;;;;;0.70;0.60;;;;;;;8.78;59.08;98943.08;1735127;80;21847;-51
2022/04/20 09:33:10;;;;;;;0.70;0.60;;;;;;;8.84;58.91;98945.94;1728187;80;21246;-52
2022/04/20 09:35:41;;;;;;;1.00;0.53;;;;;;;8.90;58.86;98938.88;1762555;79;20909;-51
2022/04/20 09:38:08;;;;;;;0.53;0.42;;;;;;;8.94;58.73;98933.25;1731042;80;21706;-52
2022/04/20 09:40:38;;;;;;;0.70;0.60;;;;;;;9.01;58.57;98941.86;1732499;80;21108;-51
2022/04/20 09:43:07;;;;;;;0.60;0.60;;;;;;;9.07;58.39;98939.70;1730385;80;21127;-52
2022/04/20 09:45:36;;;;;;;0.70;0.70;;;;;;;9.14;58.06;98940.22;1745380;79;21544;-52
2022/04/20 09:51:20;;;;;;;0.70;0.55;;;;;;;9.16;57.64;98943.70;1742547;79;21245;-52
2022/04/20 09:53:45;;;;;;;0.82;0.60;;;;;;;9.19;57.45;98939.95;1736151;80;21081;-53
2022/04/20 09:56:21;;;;;;;0.80;0.70;;;;;;;9.17;57.39;98936.03;1724438;80;21029;-53
2022/04/20 09:59:00;;;;;;;1.22;0.70;;;;;;;9.19;57.21;98938.13;1759962;79;21107;-53
2022/04/20 10:01:31;;;;;;;0.72;0.70;;;;;;;9.23;57.53;98936.16;1732907;80;20882;-54
2022/04/20 10:03:59;;;;;;;0.70;0.60;;;;;;;9.29;57.55;98933.13;1747212;80;21402;-51
2022/04/20 10:06:26;;;;;;;1.72;0.70;;;;;;;9.34;57.18;98930.59;1738843;80;21318;-53
2022/04/20 10:08:54;;;;;;;1.10;0.78;;;;;;;9.36;57.07;98940.75;1771979;78;21000;-54
2022/04/20 10:11:23;;;;;;;1.30;0.80;;;;;;;9.39;57.05;98935.22;1766428;78;20928;-53
2022/04/20 10:16:39;;;;;;;1.00;0.80;;;;;;;9.39;56.41;98945.95;1748395;79;22373;-53
2022/04/20 10:19:09;;;;;;;0.98;0.88;;;;;;;9.39;56.15;98941.06;1749633;79;21534;-53
2022/04/20 10:21:47;;;;;;;1.20;0.70;;;;;;;9.38;56.02;98939.33;1752469;79;21546;-53
2022/04/20 10:24:18;;;;;;;0.88;0.70;;;;;;;9.40;56.33;98938.77;1746366;79;21439;-53
2022/04/20 10:26:47;;;;;;;1.25;0.78;;;;;;;9.44;56.64;98936.31;1747750;79;21409;-53
2022/04/20 10:29:39;;;;;;;1.00;0.88;;;;;;;9.47;56.75;98945.05;1741277;80;21079;-52
2022/04/20 10:32:19;;;;;;;0.80;0.70;;;;;;;9.54;56.54;98943.34;1737866;80;21641;-53
2022/04/20 10:34:45;;;;;;;2.62;1.30;;;;;;;9.55;56.32;98939.23;1731697;79;21123;-53
2022/04/20 10:37:17;;;;;;;1.00;0.90;;;;;;;9.55;56.20;98947.77;1747715;79;20997;-56
2022/04/20 10:39:52;;;;;;;1.00;0.70;;;;;;;9.49;56.29;98953.89;1751043;79;20933;-53
2022/04/20 10:42:17;;;;;;;1.05;0.90;;;;;;;9.49;56.28;98959.74;1745881;79;21257;-53
2022/04/20 10:45:05;;;;;;;2.85;1.17;;;;;;;9.49;56.29;98959.27;1763327;80;20940;-53
2022/04/20 10:47:42;;;;;;;0.85;0.60;;;;;;;9.51;56.47;98956.50;1735486;80;20945;-51
2022/04/20 10:50:21;;;;;;;0.88;0.80;;;;;;;9.53;56.43;98946.51;1767102;78;20862;-52
2022/04/20 10:53:03;;;;;;;1.07;0.65;;;;;;;9.58;56.43;98951.64;1769955;78;20905;-52
2022/04/20 10:55:41;;;;;;;1.20;0.82;;;;;;;9.63;56.61;98950.89;1726001;80;21750;-52
2022/04/20 10:58:22;;;;;;;1.00;0.80;;;;;;;9.67;56.41;98959.18;1764954;78;20846;-52
2022/04/20 11:01:09;;;;;;;0.85;0.78;;;;;;;9.68;56.42;98953.72;1769477;78;20953;-52
2022/04/20 11:03:54;;;;;;;0.88;0.70;;;;;;;9.69;56.33;98953.25;1668072;79;21291;-53
2022/04/20 11:06:22;;;;;;;;;;;;;;;9.72;56.25;98957.95;1771671;78;21989;-53
2022/04/20 11:08:51;;;;;;;0.88;0.60;;;;;;;9.77;56.01;98958.57;1771589;78;20156;-52
2022/04/20 11:19:57;;;;;;;0.90;0.80;;;;;;;9.81;55.47;98957.90;1766084;78;21565;-53
2022/04/20 11:22:25;;;;;;;1.02;0.85;;;;;;;9.75;55.51;98951.07;1767820;78;21069;-54
2022/04/20 11:25:05;;;;;;;1.20;0.88;;;;;;;9.72;55.37;98951.23;1766349;78;20917;-53
2022/04/20 11:27:35;;;;;;;0.98;0.80;;;;;;;9.71;55.35;98949.50;1768476;78;20909;-53
2022/04/20 11:30:06;;;;;;;0.90;0.75;;;;;;;9.72;55.33;98940.95;1768746;78;20977;-53
2022/04/20 11:32:35;;;;;;;0.80;0.70;;;;;;;9.72;54.73;98936.92;1771610;78;21432;-52
2022/04/20 11:35:11;;;;;;;0.98;0.80;;;;;;;9.71;55.05;98936.06;1766663;78;21000;-52
2022/04/20 11:37:39;;;;;;;3.15;0.80;;;;;;;9.77;55.24;98935.73;1769728;78;21111;-53
2022/04/20 11:40:12;;;;;;;0.98;0.80;;;;;;;9.86;55.23;98937.89;1747736;79;21459;-53
2022/04/20 11:42:40;;;;;;;1.00;0.80;;;;;;;9.93;54.99;98940.20;1768000;78;21083;-53
2022/04/20 11:45:07;;;;;;;1.57;0.80;;;;;;;9.95;54.83;98928.42;1767862;78;21084;-53
2022/04/20 11:47:39;;;;;;;2.65;0.90;;;;;;;10.00;55.06;98930.34;1771156;78;21175;-52
2022/04/20 11:50:08;;;;;;;1.57;0.90;;;;;;;10.08;55.20;98924.03;1743120;78;20929;-53
2022/04/20 11:52:38;;;;;;;1.22;0.85;;;;;;;10.15;55.28;98921.36;1758637;78;21664;-53
2022/04/20 11:55:15;;;;;;;1.30;0.82;;;;;;;10.20;54.59;98910.38;1765751;78;21088;-53
2022/04/20 11:57:42;;;;;;;0.90;0.68;;;;;;;10.22;54.07;98905.27;1765848;78;21511;-53
2022/04/20 12:00:11;;;;;;;1.10;0.80;;;;;;;10.27;54.21;98895.60;1767320;78;21028;-54
2022/04/20 12:02:44;;;;;;;0.88;0.80;;;;;;;10.30;54.09;98902.13;1770057;78;21482;-52
2022/04/20 12:05:12;;;;;;;1.77;0.72;;;;;;;10.30;54.25;98884.64;1744600;78;21654;-52
2022/04/20 12:07:40;;;;;;;1.42;0.70;;;;;;;10.30;54.18;98883.29;1769469;78;22395;-52
2022/04/20 12:10:08;;;;;;;1.30;0.80;;;;;;;10.31;53.99;98882.81;1745263;78;21076;-52
2022/04/20 12:12:36;;;;;;;0.98;0.82;;;;;;;10.28;53.31;98881.20;1740935;80;22341;-52
2022/04/20 12:15:08;;;;;;;0.95;0.70;;;;;;;10.22;53.81;98885.11;1766499;78;21044;-52
2022/04/20 12:17:34;;;;;;;8.55;0.90;;;;;;;10.20;54.04;98881.67;1767561;78;21098;-52
2022/04/20 12:20:01;;;;;;;2.10;0.98;;;;;;;10.25;54.25;98880.03;1765044;78;21063;-51
2022/04/20 12:22:27;;;;;;;0.80;0.70;;;;;;;10.31;54.19;98874.27;1766595;78;21061;-52
2022/04/20 12:25:07;;;;;;;0.98;0.70;;;;;;;10.39;53.81;98872.45;1764951;78;20984;-52
2022/04/20 12:27:52;;;;;;;0.78;0.70;;;;;;;10.45;53.71;98866.72;1766387;78;21059;-53
2022/04/20 12:30:44;;;;;;;0.80;0.70;;;;;;;10.47;53.40;98866.98;1763115;78;21430;-53
2022/04/20 12:33:09;;;;;;;1.07;0.60;;;;;;;10.52;53.21;98869.41;1765809;78;21696;-52
2022/04/20 12:35:36;;;;;;;1.50;0.70;;;;;;;10.54;53.57;98870.19;1764483;78;22445;-53